createdAt,value
2019-04-20T00:00:00.781Z,60.79
2019-04-20T00:02:25.791Z,60.84
2019-04-20T00:04:55.059Z,60.84
2019-04-20T00:07:29.470Z,61.25
2019-04-20T00:10:02.598Z,61.25
2019-04-20T00:12:36.784Z,61.96
2019-04-20T00:14:56.599Z,61.96
2019-04-20T00:17:26.695Z,62.87
2019-04-20T00:19:57.787Z,62.87
2019-04-20T00:22:46.930Z,62.85
2019-04-20T00:25:41.721Z,62.28
2019-04-20T00:28:22.450Z,62.28
2019-04-20T00:30:53.355Z,61.61
2019-04-20T00:33:14.729Z,62.52
2019-04-20T00:35:35.900Z,62.52
2019-04-20T00:38:05.641Z,62.40
2019-04-20T00:40:35.754Z,62.40
2019-04-20T00:43:06.559Z,62.96
2019-04-20T00:45:41.398Z,63.13
2019-04-20T00:48:19.993Z,63.20
2019-04-20T00:50:49.116Z,64.11
2019-04-20T00:53:17.053Z,64.11
2019-04-20T00:55:38.098Z,64.96
2019-04-20T00:58:17.382Z,64.96
2019-04-20T01:01:04.059Z,64.07
2019-04-20T01:03:20.933Z,63.78
2019-04-20T01:06:22.241Z,63.65
2019-04-20T01:08:40.209Z,63.63
2019-04-20T01:11:10.205Z,63.90
2019-04-20T01:13:45.949Z,63.90
2019-04-20T01:16:21.731Z,63.91
2019-04-20T01:18:43.748Z,63.91
2019-04-20T01:21:16.675Z,63.19
2019-04-20T01:23:50.795Z,63.63
2019-04-20T01:26:17.187Z,63.05
2019-04-20T01:28:57.640Z,63.02
2019-04-20T01:31:25.424Z,63.13
2019-04-20T01:33:56.323Z,63.13
2019-04-20T01:36:37.113Z,62.31
2019-04-20T01:39:02.798Z,62.05
2019-04-20T01:41:22.168Z,62.05
2019-04-20T01:43:52.272Z,62.09
2019-04-20T01:46:24.879Z,62.48
2019-04-20T01:48:52.642Z,63.09
2019-04-20T01:51:27.173Z,64.30
2019-04-20T01:54:11.746Z,64.82
2019-04-20T01:56:40.064Z,66.02
2019-04-20T01:59:20.030Z,66.02
2019-04-20T02:01:59.433Z,65.81
2019-04-20T02:04:40.950Z,65.88
2019-04-20T02:07:09.147Z,66.35
2019-04-20T02:09:45.616Z,66.15
2019-04-20T02:12:15.464Z,66.15
2019-04-20T02:14:46.242Z,66.35
2019-04-20T02:17:22.737Z,66.72
2019-04-20T02:20:02.314Z,66.07
2019-04-20T02:22:30.311Z,66.53
2019-04-20T02:24:42.706Z,66.53
2019-04-20T02:27:12.566Z,65.08
2019-04-20T02:30:06.463Z,65.08
2019-04-20T02:32:53.278Z,65.91
2019-04-20T02:35:34.405Z,66.69
2019-04-20T02:38:26.095Z,67.13
2019-04-20T02:40:46.886Z,67.26
2019-04-20T02:43:25.346Z,66.20
2019-04-20T02:45:39.892Z,66.20
2019-04-20T02:48:08.138Z,65.76
2019-04-20T02:50:44.556Z,66.00
2019-04-20T02:58:07.041Z,66.47
2019-04-20T03:00:35.222Z,66.47
2019-04-20T03:02:52.883Z,66.11
2019-04-20T03:05:28.321Z,66.99
2019-04-20T03:08:02.779Z,66.99
2019-04-20T03:10:44.634Z,68.32
2019-04-20T03:13:08.593Z,68.90
2019-04-20T03:15:37.709Z,69.28
2019-04-20T03:18:08.814Z,70.25
2019-04-20T03:20:36.824Z,69.63
2019-04-20T03:25:55.962Z,69.68
2019-04-20T03:28:31.009Z,69.71
2019-04-20T03:34:00.840Z,70.17
2019-04-20T03:36:19.639Z,70.42
2019-04-20T03:38:38.461Z,71.03
2019-04-20T03:41:04.019Z,71.52
2019-04-20T03:43:20.187Z,71.77
2019-04-20T03:45:56.158Z,71.86
2019-04-20T03:48:39.357Z,70.96
2019-04-20T03:51:16.334Z,71.72
2019-04-20T03:53:39.252Z,72.00
2019-04-20T03:56:34.636Z,71.65
2019-04-20T03:59:11.899Z,71.58
2019-04-20T04:02:24.609Z,71.26
2019-04-20T04:04:54.746Z,71.38
2019-04-20T04:07:18.275Z,72.47
2019-04-20T04:09:56.165Z,72.13
2019-04-20T04:12:46.795Z,72.79
2019-04-20T04:15:14.894Z,72.67
2019-04-20T04:17:45.579Z,75.13
2019-04-20T04:20:17.803Z,75.20
2019-04-20T04:23:07.936Z,72.71
2019-04-20T04:25:25.038Z,73.39
2019-04-20T04:28:03.899Z,73.57
2019-04-20T04:30:33.065Z,74.04
2019-04-20T04:33:37.895Z,74.22
2019-04-20T04:35:31.362Z,73.34
2019-04-20T04:38:05.804Z,72.26
2019-04-20T04:40:49.862Z,72.62
2019-04-20T04:43:10.241Z,72.23
2019-04-20T04:45:26.557Z,72.80
2019-04-20T04:47:53.676Z,74.03
2019-04-20T04:50:26.222Z,73.04
2019-04-20T04:53:04.117Z,72.29
2019-04-20T04:55:36.311Z,71.44
2019-04-20T04:57:55.773Z,72.13
2019-04-20T05:00:28.229Z,71.75
2019-04-20T05:03:02.020Z,71.76
2019-04-20T05:05:56.135Z,72.61
2019-04-20T05:08:17.892Z,72.61
2019-04-20T05:10:39.281Z,73.25
2019-04-20T05:13:09.138Z,73.25
2019-04-20T05:15:57.412Z,72.86
2019-04-20T05:18:34.730Z,72.75
2019-04-20T05:21:04.404Z,72.89
2019-04-20T05:23:47.890Z,72.79
2019-04-20T05:26:57.484Z,72.99
2019-04-20T05:29:08.533Z,73.39
2019-04-20T05:31:40.417Z,72.80
2019-04-20T05:34:29.523Z,73.45
2019-04-20T05:36:50.329Z,74.37
2019-04-20T05:39:29.796Z,73.21
2019-04-20T05:41:51.517Z,73.50
2019-04-20T05:44:26.283Z,73.50
2019-04-20T05:47:00.941Z,74.27
2019-04-20T05:49:31.674Z,74.27
2019-04-20T05:52:10.447Z,73.15
2019-04-20T05:54:40.364Z,72.17
2019-04-20T05:57:07.817Z,72.17
2019-04-20T05:59:45.413Z,72.22
2019-04-20T06:02:09.719Z,72.33
2019-04-20T06:04:55.223Z,72.33
2019-04-20T06:07:09.458Z,73.21
2019-04-20T06:09:42.953Z,73.21
2019-04-20T06:14:55.896Z,73.85
2019-04-20T06:17:40.090Z,73.31
2019-04-20T06:20:12.631Z,72.99
2019-04-20T06:22:42.780Z,72.18
2019-04-20T06:27:51.192Z,69.81
2019-04-20T06:30:13.622Z,69.69
2019-04-20T06:36:17.233Z,68.56
2019-04-20T06:38:49.699Z,66.51
2019-04-20T06:41:06.311Z,66.51
2019-04-20T06:43:33.336Z,65.58
2019-04-20T06:46:04.321Z,62.45
2019-04-20T06:48:35.317Z,61.45
2019-04-20T06:50:57.121Z,59.96
2019-04-20T06:53:45.363Z,58.45
2019-04-20T06:56:15.694Z,57.66
2019-04-20T07:01:11.007Z,56.89
2019-04-20T07:04:10.754Z,56.41
2019-04-20T07:06:30.720Z,56.21
2019-04-20T07:11:18.531Z,54.13
2019-04-20T07:13:35.914Z,53.11
2019-04-20T07:16:21.580Z,51.61
2019-04-20T07:19:09.443Z,49.69
2019-04-20T07:22:06.004Z,49.18
2019-04-20T07:24:25.160Z,47.46
2019-04-20T07:26:55.847Z,48.49
2019-04-20T07:29:31.942Z,47.79
2019-04-20T07:31:50.068Z,46.52
2019-04-20T07:34:23.370Z,46.75
2019-04-20T07:37:21.647Z,45.51
2019-04-20T07:39:27.942Z,44.56
2019-04-20T07:42:04.522Z,43.59
2019-04-20T07:44:34.767Z,42.56
2019-04-20T07:47:11.738Z,39.10
2019-04-20T07:49:32.934Z,39.80
2019-04-20T07:51:43.863Z,40.77
2019-04-20T07:54:40.132Z,41.29
2019-04-20T07:57:01.831Z,41.84
2019-04-20T07:59:23.366Z,41.22
2019-04-20T08:02:39.076Z,41.32
2019-04-20T08:05:21.912Z,41.32
2019-04-20T08:07:45.710Z,41.69
2019-04-20T08:10:12.215Z,40.11
2019-04-20T08:13:02.375Z,37.17
2019-04-20T08:15:44.524Z,37.70
2019-04-20T08:18:17.998Z,37.01
2019-04-20T08:20:25.736Z,36.67
2019-04-20T08:22:58.638Z,36.63
2019-04-20T08:25:23.520Z,35.22
2019-04-20T08:28:19.291Z,34.97
2019-04-20T08:31:15.309Z,34.16
2019-04-20T08:34:04.832Z,33.68
2019-04-20T08:36:22.822Z,33.29
2019-04-20T08:39:12.727Z,31.69
2019-04-20T08:41:17.957Z,31.61
2019-04-20T08:44:06.440Z,31.07
2019-04-20T08:46:30.925Z,30.72
2019-04-20T08:48:56.707Z,31.01
2019-04-20T08:51:25.964Z,31.21
2019-04-20T08:53:53.331Z,31.35
2019-04-20T08:56:19.751Z,30.02
2019-04-20T08:58:37.023Z,29.56
2019-04-20T09:01:08.623Z,28.05
2019-04-20T09:03:46.362Z,26.27
2019-04-20T09:06:23.811Z,27.56
2019-04-20T09:08:50.325Z,27.05
2019-04-20T09:11:24.486Z,27.34
2019-04-20T09:13:46.186Z,27.92
2019-04-20T09:16:10.856Z,27.60
2019-04-20T09:18:50.551Z,27.48
2019-04-20T09:21:24.348Z,28.04
2019-04-20T09:24:10.785Z,28.95
2019-04-20T09:26:37.588Z,28.56
2019-04-20T09:29:12.560Z,28.33
2019-04-20T09:31:44.823Z,29.26
2019-04-20T09:34:42.389Z,29.48
2019-04-20T09:37:29.655Z,29.27
2019-04-20T09:40:21.645Z,29.25
2019-04-20T09:42:50.663Z,29.27
2019-04-20T09:45:35.007Z,29.94
2019-04-20T09:47:56.454Z,29.69
2019-04-20T09:50:45.014Z,28.88
2019-04-20T09:53:10.182Z,28.18
2019-04-20T09:55:38.173Z,27.92
2019-04-20T09:58:09.534Z,28.38
2019-04-20T10:00:56.832Z,27.30
2019-04-20T10:03:11.253Z,27.64
2019-04-20T10:05:41.194Z,27.96
2019-04-20T10:08:11.390Z,27.70
2019-04-20T10:10:42.635Z,27.56
2019-04-20T10:13:11.254Z,26.78
2019-04-20T10:15:41.569Z,26.80
2019-04-20T10:18:12.029Z,26.43
2019-04-20T10:20:43.435Z,26.46
2019-04-20T10:23:12.469Z,26.68
2019-04-20T10:25:42.509Z,27.05
2019-04-20T10:28:11.818Z,26.85
2019-04-20T10:30:40.871Z,26.33
2019-04-20T10:33:10.011Z,26.37
2019-04-20T10:35:39.487Z,26.90
2019-04-20T10:38:13.747Z,27.08
2019-04-20T10:40:54.041Z,26.46
2019-04-20T10:43:14.196Z,26.48
2019-04-20T10:45:44.748Z,26.94
2019-04-20T10:48:15.137Z,26.72
2019-04-20T10:50:45.084Z,26.32
2019-04-20T10:53:14.576Z,26.36
2019-04-20T10:55:43.468Z,27.03
2019-04-20T10:58:13.604Z,27.07
2019-04-20T11:00:44.313Z,27.76
2019-04-20T11:03:15.550Z,27.28
2019-04-20T11:05:45.062Z,27.29
2019-04-20T11:08:14.854Z,26.45
2019-04-20T11:10:55.585Z,27.67
2019-04-20T11:13:15.234Z,27.70
2019-04-20T11:15:46.557Z,27.82
2019-04-20T11:18:15.533Z,28.26
2019-04-20T11:20:45.603Z,27.93
2019-04-20T11:23:15.842Z,28.17
2019-04-20T11:25:46.292Z,27.94
2019-04-20T11:28:16.614Z,26.40
2019-04-20T11:30:46.284Z,25.60
2019-04-20T11:33:16.098Z,25.03
2019-04-20T11:35:46.477Z,24.68
2019-04-20T11:38:17.267Z,25.60
2019-04-20T11:40:47.037Z,25.13
2019-04-20T11:43:17.792Z,24.13
2019-04-20T11:45:46.896Z,23.81
2019-04-20T11:48:15.936Z,22.87
2019-04-20T11:50:45.470Z,22.48
2019-04-20T11:53:15.306Z,22.51
2019-04-20T11:55:44.647Z,24.06
2019-04-20T11:58:14.216Z,23.84
2019-04-20T12:00:56.288Z,24.46
2019-04-20T12:03:31.095Z,25.43
2019-04-20T12:05:57.909Z,24.21
2019-04-20T12:08:24.967Z,22.76
2019-04-20T12:10:57.744Z,21.60
2019-04-20T12:13:24.814Z,21.27
2019-04-20T12:15:53.870Z,20.85
2019-04-20T12:18:23.411Z,21.43
2019-04-20T12:20:52.596Z,22.49
2019-04-20T12:23:22.342Z,22.50
2019-04-20T12:25:52.368Z,22.04
2019-04-20T12:28:21.975Z,22.09
2019-04-20T12:30:51.503Z,21.74
2019-04-20T12:33:20.609Z,21.09
2019-04-20T12:35:50.098Z,20.27
2019-04-20T12:38:19.251Z,20.94
2019-04-20T12:40:48.456Z,20.64
2019-04-20T12:43:17.608Z,21.23
2019-04-20T12:45:47.697Z,21.79
2019-04-20T12:48:17.635Z,21.81
2019-04-20T12:50:47.783Z,20.59
2019-04-20T12:53:17.122Z,19.76
2019-04-20T12:55:46.526Z,19.59
2019-04-20T12:58:16.620Z,18.52
2019-04-20T13:00:49.669Z,17.92
2019-04-20T13:03:19.333Z,18.22
2019-04-20T13:05:50.050Z,17.02
2019-04-20T13:08:28.611Z,17.56
2019-04-20T13:10:58.364Z,17.58
2019-04-20T13:13:50.326Z,16.58
2019-04-20T13:16:26.117Z,16.83
2019-04-20T13:19:03.547Z,16.98
2019-04-20T13:21:32.725Z,16.22
2019-04-20T13:24:03.093Z,15.22
2019-04-20T13:26:33.189Z,16.12
2019-04-20T13:29:02.558Z,17.55
2019-04-20T13:31:31.707Z,21.88
2019-04-20T13:34:01.497Z,30.06
2019-04-20T13:36:30.649Z,27.04
2019-04-20T13:38:59.656Z,21.76
2019-04-20T13:41:29.809Z,26.42
2019-04-20T13:44:01.232Z,29.59
2019-04-20T13:46:29.284Z,23.81
2019-04-20T13:48:58.015Z,32.07
2019-04-20T13:51:27.003Z,32.28
2019-04-20T13:53:56.976Z,32.98
2019-04-20T13:56:28.006Z,32.96
2019-04-20T13:59:10.061Z,32.97
2019-04-20T14:02:08.515Z,31.77
2019-04-20T14:04:42.455Z,31.04
2019-04-20T14:07:15.028Z,31.72
2019-04-20T14:09:41.776Z,31.15
2019-04-20T14:12:21.994Z,29.65
2019-04-20T14:14:41.407Z,26.17
2019-04-20T14:17:10.801Z,20.61
2019-04-20T14:19:39.515Z,20.54
2019-04-20T14:22:08.483Z,19.60
2019-04-20T14:24:37.477Z,19.76
2019-04-20T14:27:06.634Z,19.74
2019-04-20T14:29:36.997Z,20.09
2019-04-20T14:32:07.727Z,19.89
2019-04-20T14:34:36.635Z,19.55
2019-04-20T14:37:06.900Z,18.82
2019-04-20T14:39:36.410Z,23.21
2019-04-20T14:42:06.627Z,20.13
2019-04-20T14:44:37.378Z,19.65
2019-04-20T14:47:06.187Z,19.13
2019-04-20T14:49:35.085Z,19.50
2019-04-20T14:52:04.540Z,18.69
2019-04-20T14:54:35.093Z,19.08
2019-04-20T14:57:05.424Z,18.91
2019-04-20T14:59:37.941Z,18.72
2019-04-20T15:02:12.694Z,18.70
2019-04-20T15:04:43.124Z,17.92
2019-04-20T15:07:12.992Z,18.65
2019-04-20T15:09:42.828Z,18.45
2019-04-20T15:12:12.934Z,18.35
2019-04-20T15:14:42.711Z,19.16
2019-04-20T15:17:15.176Z,19.37
2019-04-20T15:20:07.463Z,17.21
2019-04-20T15:22:43.389Z,16.58
2019-04-20T15:25:13.731Z,17.18
2019-04-20T15:27:45.979Z,16.75
2019-04-20T15:30:14.155Z,16.88
2019-04-20T15:32:43.277Z,17.28
2019-04-20T15:35:14.038Z,18.04
2019-04-20T15:37:44.928Z,17.54
2019-04-20T15:40:15.107Z,17.92
2019-04-20T15:42:56.053Z,18.73
2019-04-20T15:45:16.441Z,19.88
2019-04-20T15:47:45.838Z,19.08
2019-04-20T15:50:15.985Z,18.45
2019-04-20T15:52:51.023Z,18.32
2019-04-20T15:55:22.673Z,18.30
2019-04-20T15:57:46.633Z,19.07
2019-04-20T16:00:16.315Z,19.01
2019-04-20T16:02:49.476Z,19.07
2019-04-20T16:05:47.177Z,18.69
2019-04-20T16:08:36.740Z,18.64
2019-04-20T16:11:07.031Z,18.67
2019-04-20T16:13:40.270Z,19.01
2019-04-20T16:16:07.907Z,19.84
2019-04-20T16:18:37.213Z,20.16
2019-04-20T16:21:13.360Z,20.52
2019-04-20T16:23:48.525Z,20.73
2019-04-20T16:26:29.551Z,19.69
2019-04-20T16:28:59.709Z,19.72
2019-04-20T16:31:28.895Z,20.36
2019-04-20T16:33:58.799Z,20.70
2019-04-20T16:36:28.498Z,20.97
2019-04-20T16:38:57.675Z,21.28
2019-04-20T16:41:26.494Z,21.94
2019-04-20T16:43:55.452Z,21.07
2019-04-20T16:46:25.824Z,21.51
2019-04-20T16:48:55.133Z,21.76
2019-04-20T16:51:25.117Z,21.37
2019-04-20T16:53:54.423Z,22.37
2019-04-20T16:56:24.437Z,21.59
2019-04-20T16:58:59.370Z,22.02
2019-04-20T17:01:23.693Z,22.02
2019-04-20T17:04:01.892Z,22.78
2019-04-20T17:06:24.233Z,23.15
2019-04-20T17:08:54.527Z,23.08
2019-04-20T17:11:23.853Z,23.50
2019-04-20T17:13:56.207Z,24.19
2019-04-20T17:16:23.841Z,23.21
2019-04-20T17:18:53.043Z,24.38
2019-04-20T17:21:25.848Z,25.12
2019-04-20T17:23:53.243Z,25.95
2019-04-20T17:26:32.786Z,26.40
2019-04-20T17:29:08.257Z,27.32
2019-04-20T17:31:53.757Z,27.63
2019-04-20T17:34:41.518Z,27.87
2019-04-20T17:36:54.635Z,28.59
2019-04-20T17:39:31.723Z,28.68
2019-04-20T17:42:13.251Z,29.17
2019-04-20T17:44:42.623Z,30.17
2019-04-20T17:47:13.609Z,32.11
2019-04-20T17:49:41.233Z,33.78
2019-04-20T17:52:22.308Z,35.20
2019-04-20T17:54:35.625Z,36.28
2019-04-20T17:57:04.705Z,36.97
2019-04-20T17:59:34.629Z,38.07
2019-04-20T18:02:45.967Z,38.63
2019-04-20T18:05:28.407Z,39.61
2019-04-20T18:07:56.564Z,40.19
2019-04-20T18:10:25.967Z,39.81
2019-04-20T18:12:44.538Z,41.51
2019-04-20T18:15:31.454Z,42.36
2019-04-20T18:18:28.293Z,43.29
2019-04-20T18:20:54.901Z,43.95
2019-04-20T18:23:33.322Z,44.37
2019-04-20T18:26:21.253Z,44.88
2019-04-20T18:28:40.158Z,45.79
2019-04-20T18:31:11.224Z,45.97
2019-04-20T18:33:42.418Z,46.33
2019-04-20T18:36:13.276Z,47.03
2019-04-20T18:38:49.893Z,47.32
2019-04-20T18:41:20.951Z,47.41
2019-04-20T18:43:48.835Z,48.57
2019-04-20T18:46:28.082Z,47.97
2019-04-20T18:49:01.086Z,48.34
2019-04-20T18:51:15.398Z,49.08
2019-04-20T18:53:48.261Z,49.55
2019-04-20T18:56:17.012Z,49.71
2019-04-20T18:58:46.937Z,50.04
2019-04-20T19:01:17.050Z,50.20
2019-04-20T19:03:47.714Z,50.61
2019-04-20T19:06:16.372Z,50.65
2019-04-20T19:08:49.974Z,51.06
2019-04-20T19:11:19.799Z,51.10
2019-04-20T19:13:56.437Z,51.24
2019-04-20T19:16:42.038Z,51.51
2019-04-20T19:19:22.050Z,51.61
2019-04-20T19:21:41.015Z,51.66
2019-04-20T19:24:13.224Z,51.84
2019-04-20T19:26:47.664Z,51.83
2019-04-20T19:29:19.083Z,52.31
2019-04-20T19:31:57.353Z,52.53
2019-04-20T19:34:29.580Z,52.59
2019-04-20T19:36:58.027Z,52.36
2019-04-20T19:39:26.016Z,52.46
2019-04-20T19:41:51.652Z,52.69
2019-04-20T19:44:22.613Z,52.86
2019-04-20T19:47:06.497Z,53.26
2019-04-20T19:49:26.784Z,53.54
2019-04-20T19:52:20.223Z,53.70
2019-04-20T19:54:35.523Z,53.43
2019-04-20T19:57:01.334Z,53.66
2019-04-20T19:59:26.087Z,53.44
2019-04-20T20:01:47.691Z,53.68
2019-04-20T20:04:17.567Z,54.06
2019-04-20T20:06:51.799Z,53.30
2019-04-20T20:09:18.299Z,53.38
2019-04-20T20:11:49.522Z,52.88
2019-04-20T20:14:25.549Z,53.06
2019-04-20T20:17:05.393Z,53.13
2019-04-20T20:19:32.504Z,53.65
2019-04-20T20:22:04.500Z,53.96
2019-04-20T20:24:21.479Z,53.92
2019-04-20T20:26:57.886Z,53.52
2019-04-20T20:29:30.528Z,53.66
2019-04-20T20:32:08.490Z,53.26
2019-04-20T20:34:30.946Z,53.60
2019-04-20T20:36:59.810Z,54.29
2019-04-20T20:39:29.598Z,54.80
2019-04-20T20:42:10.093Z,55.53
2019-04-20T20:44:38.012Z,56.14
2019-04-20T20:47:07.126Z,56.70
2019-04-20T20:49:48.781Z,57.26
2019-04-20T20:52:20.261Z,58.14
2019-04-20T20:54:41.265Z,57.93
2019-04-20T20:57:05.673Z,58.88
2019-04-20T20:59:40.247Z,57.63
2019-04-20T21:02:06.461Z,57.54
2019-04-20T21:04:30.074Z,58.51
2019-04-20T21:07:00.494Z,58.30
2019-04-20T21:09:29.696Z,58.29
2019-04-20T21:12:04.308Z,58.87
2019-04-20T21:14:32.934Z,58.81
2019-04-20T21:17:05.422Z,58.89
2019-04-20T21:19:50.205Z,58.38
2019-04-20T21:22:08.426Z,58.95
2019-04-20T21:24:35.804Z,58.66
2019-04-20T21:27:07.946Z,58.85
2019-04-20T21:29:43.104Z,58.09
2019-04-20T21:32:12.085Z,57.51
2019-04-20T21:34:36.446Z,58.58
2019-04-20T21:37:10.617Z,58.90
2019-04-20T21:39:44.147Z,59.29
2019-04-20T21:42:12.482Z,59.25
2019-04-20T21:44:41.408Z,59.00
2019-04-20T21:47:09.173Z,60.19
2019-04-20T21:49:49.732Z,61.16
2019-04-20T21:52:20.828Z,61.12
2019-04-20T21:54:40.102Z,60.81
2019-04-20T21:57:11.511Z,60.62
2019-04-20T21:59:44.624Z,61.28
2019-04-20T22:02:18.590Z,62.47
2019-04-20T22:04:41.150Z,62.90
2019-04-20T22:07:10.409Z,62.51
2019-04-20T22:09:45.304Z,62.34
2019-04-20T22:12:09.907Z,63.70
2019-04-20T22:14:39.864Z,64.03
2019-04-20T22:17:09.802Z,64.56
2019-04-20T22:19:45.893Z,64.29
2019-04-20T22:22:18.461Z,63.67
2019-04-20T22:24:56.418Z,63.48
2019-04-20T22:27:20.125Z,66.41
2019-04-20T22:29:41.825Z,66.22
2019-04-20T22:32:14.854Z,67.10
2019-04-20T22:34:41.809Z,67.30
2019-04-20T22:37:15.319Z,67.42
2019-04-20T22:39:50.411Z,68.35
2019-04-20T22:42:17.912Z,66.77
2019-04-20T22:44:47.902Z,66.64
2019-04-20T22:47:23.084Z,67.07
2019-04-20T22:50:11.864Z,67.07
2019-04-20T22:52:34.773Z,66.76
2019-04-20T22:55:10.044Z,67.26
2019-04-20T22:57:36.305Z,67.26
2019-04-20T23:00:01.890Z,66.40
2019-04-20T23:02:22.967Z,66.40
2019-04-20T23:04:50.931Z,66.10
2019-04-20T23:07:20.848Z,66.39
2019-04-20T23:09:54.365Z,65.77
2019-04-20T23:12:23.363Z,65.77
2019-04-20T23:14:52.324Z,65.92
2019-04-20T23:17:27.223Z,65.85
2019-04-20T23:19:57.331Z,65.83
2019-04-20T23:22:23.099Z,67.41
2019-04-20T23:24:53.316Z,68.11
2019-04-20T23:27:27.255Z,68.51
2019-04-20T23:29:53.219Z,67.92
2019-04-20T23:32:26.128Z,67.92
2019-04-20T23:34:59.778Z,68.24
2019-04-20T23:37:29.899Z,68.64
2019-04-20T23:39:54.816Z,68.54
2019-04-20T23:42:34.901Z,68.54
2019-04-20T23:45:09.462Z,69.35
2019-04-20T23:47:46.460Z,67.90
2019-04-20T23:50:35.493Z,67.70
2019-04-20T23:53:06.690Z,67.96
2019-04-20T23:55:16.992Z,68.05
2019-04-20T23:57:50.504Z,69.08
